createdAt,value
2018-04-14T00:01:04.873Z,9.20
2018-04-14T00:03:32.337Z,9.10
2018-04-14T00:06:00.577Z,9.10
2018-04-14T00:08:28.041Z,9.10
2018-04-14T00:10:55.525Z,9.10
2018-04-14T00:13:22.988Z,9.20
2018-04-14T00:15:50.459Z,9.20
2018-04-14T00:18:18.685Z,9.10
2018-04-14T00:20:46.163Z,9.20
2018-04-14T00:23:13.625Z,8.90
2018-04-14T00:25:41.873Z,9.00
2018-04-14T00:28:09.329Z,9.20
2018-04-14T00:30:37.722Z,9.00
2018-04-14T00:33:05.193Z,9.00
2018-04-14T00:35:34.414Z,9.00
2018-04-14T00:38:02.654Z,9.00
2018-04-14T00:40:30.137Z,9.10
2018-04-14T00:42:58.264Z,9.00
2018-04-14T00:45:25.728Z,8.90
2018-04-14T00:47:53.192Z,8.90
2018-04-14T00:50:20.675Z,9.00
2018-04-14T00:52:51.385Z,8.90
2018-04-14T00:55:18.857Z,9.00
2018-04-14T00:57:46.329Z,9.00
2018-04-14T01:00:20.065Z,9.00
2018-04-14T01:02:48.485Z,8.90
2018-04-14T01:05:16.724Z,9.00
2018-04-14T01:07:44.194Z,9.10
2018-04-14T01:10:11.679Z,8.90
2018-04-14T01:12:39.147Z,9.00
2018-04-14T01:15:07.404Z,9.20
2018-04-14T01:17:40.355Z,9.20
2018-04-14T01:20:08.610Z,9.10
2018-04-14T01:22:36.072Z,8.90
2018-04-14T01:25:03.546Z,9.00
2018-04-14T01:27:31.029Z,9.00
2018-04-14T01:29:58.500Z,8.90
2018-04-14T01:32:26.037Z,8.90
2018-04-14T01:34:53.457Z,9.00
2018-04-14T01:37:20.950Z,8.90
2018-04-14T01:39:48.416Z,8.90
2018-04-14T01:42:18.566Z,8.90
2018-04-14T01:44:46.793Z,8.90
2018-04-14T01:47:14.276Z,9.10
2018-04-14T01:49:41.753Z,8.90
2018-04-14T01:52:30.520Z,8.90
2018-04-14T01:54:58.001Z,9.10
2018-04-14T01:57:25.472Z,8.90
2018-04-14T01:59:53.706Z,9.10
2018-04-14T02:02:27.686Z,9.10
2018-04-14T02:04:55.145Z,8.90
2018-04-14T02:07:22.616Z,8.90
2018-04-14T02:09:50.087Z,8.90
2018-04-14T02:12:17.557Z,9.10
2018-04-14T02:14:45.017Z,8.90
2018-04-14T02:17:13.249Z,8.80
2018-04-14T02:19:40.713Z,8.90
2018-04-14T02:22:08.198Z,8.80
2018-04-14T02:24:35.658Z,8.80
2018-04-14T02:27:03.896Z,8.80
2018-04-14T02:29:51.883Z,9.20
2018-04-14T02:32:19.362Z,9.10
2018-04-14T02:34:46.832Z,8.80
2018-04-14T02:37:14.310Z,8.80
2018-04-14T02:39:41.775Z,8.80
2018-04-14T02:42:09.249Z,8.80
2018-04-14T02:44:48.869Z,8.80
2018-04-14T02:47:16.342Z,8.80
2018-04-14T02:49:43.819Z,8.80
2018-04-14T02:52:12.340Z,9.10
2018-04-14T02:54:41.825Z,8.80
2018-04-14T02:57:09.308Z,9.00
2018-04-14T02:59:36.778Z,9.10
2018-04-14T03:02:05.022Z,8.80
2018-04-14T03:04:32.490Z,9.00
2018-04-14T03:07:00.742Z,8.80
2018-04-14T03:09:28.217Z,8.70
2018-04-14T03:11:55.684Z,8.70
2018-04-14T03:14:23.169Z,8.70
2018-04-14T03:16:50.648Z,8.70
2018-04-14T03:19:18.116Z,8.70
2018-04-14T03:21:45.610Z,8.70
2018-04-14T03:24:13.086Z,8.70
2018-04-14T03:26:40.591Z,8.70
2018-04-14T03:29:08.065Z,8.70
2018-04-14T03:31:35.541Z,8.70
2018-04-14T03:34:05.010Z,8.70
2018-04-14T03:36:33.262Z,8.70
2018-04-14T03:44:46.187Z,8.70
2018-04-14T03:47:13.725Z,8.70
2018-04-14T03:50:01.146Z,8.60
2018-04-14T03:52:28.627Z,8.70
2018-04-14T03:54:56.121Z,8.60
2018-04-14T03:57:23.604Z,8.60
2018-04-14T03:59:51.077Z,8.60
2018-04-14T04:02:29.235Z,8.60
2018-04-14T04:04:56.699Z,8.60
2018-04-14T04:07:24.172Z,8.60
2018-04-14T04:09:51.651Z,8.60
2018-04-14T04:12:19.486Z,8.70
2018-04-14T04:14:47.721Z,8.60
2018-04-14T04:17:15.202Z,8.70
2018-04-14T04:19:54.464Z,8.60
2018-04-14T04:22:33.793Z,8.60
2018-04-14T04:25:27.242Z,8.60
2018-04-14T04:28:00.895Z,8.80
2018-04-14T04:30:28.365Z,8.50
2018-04-14T04:32:55.854Z,8.50
2018-04-14T04:35:24.245Z,8.60
2018-04-14T04:37:51.716Z,8.50
2018-04-14T04:40:19.191Z,8.50
2018-04-14T04:42:46.669Z,8.50
2018-04-14T04:45:14.158Z,8.50
2018-04-14T04:47:41.625Z,8.70
2018-04-14T04:50:09.090Z,8.50
2018-04-14T04:52:36.568Z,8.50
2018-04-14T04:55:07.010Z,8.50
2018-04-14T04:57:35.249Z,8.50
2018-04-14T05:00:02.727Z,8.70
2018-04-14T05:02:30.218Z,8.50
2018-04-14T05:04:57.686Z,8.70
2018-04-14T05:07:25.444Z,8.50
2018-04-14T05:09:52.939Z,8.50
2018-04-14T05:12:20.418Z,8.80
2018-04-14T05:14:47.881Z,8.60
2018-04-14T05:17:16.125Z,8.60
2018-04-14T05:19:44.367Z,8.60
2018-04-14T05:22:11.842Z,8.70
2018-04-14T05:24:39.320Z,8.50
2018-04-14T05:27:10.734Z,8.60
2018-04-14T05:29:38.979Z,8.50
2018-04-14T05:32:06.458Z,8.70
2018-04-14T05:34:33.934Z,8.50
2018-04-14T05:37:01.418Z,8.80
2018-04-14T05:39:28.881Z,8.50
2018-04-14T05:41:56.373Z,8.50
2018-04-14T05:44:23.849Z,8.50
2018-04-14T05:46:51.329Z,8.50
2018-04-14T05:49:19.718Z,8.50
2018-04-14T05:51:48.122Z,8.50
2018-04-14T05:54:15.598Z,8.50
2018-04-14T05:56:43.839Z,8.50
2018-04-14T05:59:11.318Z,8.70
2018-04-14T06:01:38.782Z,8.40
2018-04-14T06:04:06.267Z,8.40
2018-04-14T06:06:33.730Z,8.40
2018-04-14T06:09:01.225Z,8.40
2018-04-14T06:11:29.438Z,8.50
2018-04-14T06:13:58.845Z,8.80
2018-04-14T06:16:28.249Z,8.50
2018-04-14T06:18:57.082Z,8.50
2018-04-14T06:21:24.571Z,8.70
2018-04-14T06:23:52.058Z,8.80
2018-04-14T06:26:19.526Z,8.50
2018-04-14T06:28:47.003Z,8.50
2018-04-14T06:31:15.233Z,8.50
2018-04-14T06:33:42.705Z,8.70
2018-04-14T06:36:10.167Z,8.50
2018-04-14T06:38:39.420Z,8.50
2018-04-14T06:41:06.885Z,8.80
2018-04-14T06:43:42.321Z,8.50
2018-04-14T06:46:27.714Z,8.80
2018-04-14T06:49:03.607Z,8.50
2018-04-14T06:51:54.725Z,8.50
2018-04-14T06:54:22.207Z,8.50
2018-04-14T06:56:49.673Z,8.50
2018-04-14T06:59:17.145Z,8.50
2018-04-14T07:01:44.618Z,8.50
2018-04-14T07:04:12.095Z,8.50
2018-04-14T07:06:39.549Z,8.60
2018-04-14T07:09:07.785Z,8.50
2018-04-14T07:11:35.247Z,8.70
2018-04-14T07:14:02.718Z,8.50
2018-04-14T07:16:40.742Z,8.60
2018-04-14T07:19:08.213Z,8.70
2018-04-14T07:21:36.642Z,8.70
2018-04-14T07:24:04.890Z,9.10
2018-04-14T07:26:32.355Z,9.10
2018-04-14T07:28:59.826Z,8.80
2018-04-14T07:31:27.299Z,9.10
2018-04-14T07:33:54.775Z,8.80
2018-04-14T07:36:22.998Z,8.80
2018-04-14T07:38:50.466Z,8.60
2018-04-14T07:41:17.933Z,8.70
2018-04-14T07:43:46.165Z,8.80
2018-04-14T07:46:13.636Z,9.00
2018-04-14T07:48:45.410Z,9.10
2018-04-14T07:51:12.879Z,8.90
2018-04-14T07:53:40.351Z,8.90
2018-04-14T07:56:08.582Z,8.90
2018-04-14T07:58:36.051Z,9.10
2018-04-14T08:01:05.281Z,9.10
2018-04-14T08:03:32.768Z,9.10
2018-04-14T08:06:00.234Z,9.10
2018-04-14T08:08:28.483Z,9.20
2018-04-14T08:10:56.592Z,9.20
2018-04-14T08:13:27.502Z,9.00
2018-04-14T08:15:54.957Z,9.10
2018-04-14T08:18:23.423Z,9.10
2018-04-14T08:20:51.605Z,9.10
2018-04-14T08:23:19.088Z,9.20
2018-04-14T08:25:57.878Z,9.40
2018-04-14T08:28:29.192Z,9.30
2018-04-14T08:30:56.657Z,9.40
2018-04-14T08:33:24.892Z,9.60
2018-04-14T08:35:52.349Z,9.40
2018-04-14T08:38:20.580Z,9.80
2018-04-14T08:40:48.052Z,9.80
2018-04-14T08:43:15.521Z,10.00
2018-04-14T08:45:42.986Z,10.30
2018-04-14T08:48:11.231Z,10.40
2018-04-14T08:50:39.458Z,10.30
2018-04-14T08:53:10.566Z,10.30
2018-04-14T08:55:38.790Z,10.00
2018-04-14T08:58:06.253Z,9.90
2018-04-14T09:00:34.478Z,9.80
2018-04-14T09:03:01.946Z,9.80
2018-04-14T09:05:29.418Z,9.70
2018-04-14T09:07:57.655Z,9.80
2018-04-14T09:10:25.126Z,9.80
2018-04-14T09:12:52.589Z,9.70
2018-04-14T09:15:20.820Z,9.70
2018-04-14T09:17:48.286Z,9.60
2018-04-14T09:20:15.748Z,9.60
2018-04-14T09:22:43.973Z,9.80
2018-04-14T09:25:11.442Z,9.80
2018-04-14T09:27:38.893Z,9.90
2018-04-14T09:30:06.366Z,9.90
2018-04-14T09:32:33.842Z,9.90
2018-04-14T09:35:01.313Z,10.20
2018-04-14T09:37:28.782Z,10.40
2018-04-14T09:39:56.261Z,10.80
2018-04-14T09:42:23.730Z,11.00
2018-04-14T09:44:51.203Z,10.90
2018-04-14T09:47:18.671Z,10.90
2018-04-14T09:49:46.162Z,11.00
2018-04-14T09:52:13.635Z,11.00
2018-04-14T09:54:41.869Z,11.00
2018-04-14T09:57:09.342Z,11.00
2018-04-14T09:59:36.814Z,11.00
2018-04-14T10:02:04.288Z,11.10
2018-04-14T10:04:32.520Z,11.50
2018-04-14T10:09:35.946Z,11.40
2018-04-14T10:12:09.573Z,11.40
2018-04-14T10:14:37.478Z,11.70
2018-04-14T10:17:04.953Z,11.90
2018-04-14T10:19:32.999Z,12.30
2018-04-14T10:22:00.462Z,12.90
2018-04-14T10:24:42.531Z,13.50
2018-04-14T10:27:21.548Z,13.50
2018-04-14T10:35:55.451Z,12.90
2018-04-14T10:38:22.901Z,12.40
2018-04-14T10:40:50.377Z,12.20
2018-04-14T10:43:18.589Z,12.30
2018-04-14T10:45:46.061Z,12.30
2018-04-14T10:48:13.534Z,12.40
2018-04-14T10:50:41.005Z,12.70
2018-04-14T10:53:09.230Z,13.60
2018-04-14T10:55:36.706Z,13.60
2018-04-14T10:58:04.175Z,14.00
2018-04-14T11:00:31.643Z,14.00
2018-04-14T11:02:59.097Z,14.10
2018-04-14T11:05:26.570Z,14.10
2018-04-14T11:07:54.025Z,13.90
2018-04-14T11:10:21.501Z,13.60
2018-04-14T11:12:48.990Z,13.10
2018-04-14T11:15:16.510Z,12.90
2018-04-14T11:17:44.714Z,12.80
2018-04-14T11:20:12.201Z,12.90
2018-04-14T11:22:39.672Z,12.90
2018-04-14T11:25:07.149Z,13.30
2018-04-14T11:27:34.618Z,13.50
2018-04-14T11:30:02.105Z,13.80
2018-04-14T11:32:29.565Z,13.60
2018-04-14T11:34:57.038Z,13.30
2018-04-14T11:37:24.493Z,13.40
2018-04-14T11:39:51.968Z,13.50
2018-04-14T11:42:19.430Z,13.90
2018-04-14T11:44:46.905Z,14.20
2018-04-14T11:47:14.373Z,14.10
2018-04-14T11:49:41.848Z,14.10
2018-04-14T11:52:09.310Z,14.00
2018-04-14T11:54:36.796Z,13.90
2018-04-14T11:57:04.257Z,13.80
2018-04-14T11:59:31.721Z,13.60
2018-04-14T12:01:59.189Z,13.60
2018-04-14T12:04:26.656Z,13.60
2018-04-14T12:06:54.128Z,13.80
2018-04-14T12:09:21.605Z,13.80
2018-04-14T12:11:49.064Z,13.80
2018-04-14T12:14:16.524Z,13.80
2018-04-14T12:16:44.010Z,14.20
2018-04-14T12:19:12.468Z,14.20
2018-04-14T12:21:39.933Z,13.90
2018-04-14T12:24:07.401Z,13.90
2018-04-14T12:26:34.867Z,14.10
2018-04-14T12:29:03.230Z,14.50
2018-04-14T12:31:30.702Z,15.10
2018-04-14T12:33:58.177Z,15.50
2018-04-14T12:36:26.436Z,16.00
2018-04-14T12:38:53.885Z,16.00
2018-04-14T12:41:21.357Z,15.70
2018-04-14T12:43:48.830Z,15.60
2018-04-14T12:46:16.310Z,15.50
2018-04-14T12:48:43.769Z,15.50
2018-04-14T12:51:11.237Z,15.50
2018-04-14T12:53:38.701Z,15.20
2018-04-14T12:56:06.171Z,14.90
2018-04-14T12:58:33.629Z,14.30
2018-04-14T13:01:01.123Z,14.10
2018-04-14T13:03:28.573Z,14.00
2018-04-14T13:05:56.053Z,14.20
2018-04-14T13:08:23.518Z,14.50
2018-04-14T13:10:50.995Z,15.00
2018-04-14T13:13:18.459Z,15.30
2018-04-14T13:15:46.698Z,16.10
2018-04-14T13:18:14.929Z,16.10
2018-04-14T13:20:42.397Z,16.40
2018-04-14T13:23:09.865Z,16.30
2018-04-14T13:25:37.331Z,16.30
2018-04-14T13:28:04.801Z,16.10
2018-04-14T13:30:32.269Z,16.00
2018-04-14T13:32:59.754Z,16.10
2018-04-14T13:35:27.229Z,16.50
2018-04-14T13:37:54.714Z,16.60
2018-04-14T13:40:22.177Z,16.70
2018-04-14T13:42:49.654Z,16.60
2018-04-14T13:45:17.113Z,16.60
2018-04-14T13:47:44.581Z,16.40
2018-04-14T13:50:12.057Z,16.40
2018-04-14T13:52:39.525Z,16.40
2018-04-14T13:55:07.006Z,16.30
2018-04-14T13:57:34.473Z,16.20
2018-04-14T14:00:01.945Z,15.90
2018-04-14T14:02:29.413Z,15.60
2018-04-14T14:04:56.890Z,15.50
2018-04-14T14:07:24.364Z,15.40
2018-04-14T14:09:51.822Z,15.30
2018-04-14T14:12:19.285Z,15.40
2018-04-14T14:14:46.757Z,15.30
2018-04-14T14:17:15.128Z,15.30
2018-04-14T14:19:42.598Z,15.20
2018-04-14T14:22:10.070Z,15.10
2018-04-14T14:24:37.525Z,15.20
2018-04-14T14:27:09.929Z,15.30
2018-04-14T14:29:37.393Z,15.30
2018-04-14T14:32:04.870Z,15.20
2018-04-14T14:34:32.335Z,15.10
2018-04-14T14:36:59.805Z,15.10
2018-04-14T14:39:27.278Z,15.00
2018-04-14T14:41:55.649Z,14.90
2018-04-14T14:44:31.989Z,14.90
2018-04-14T14:46:59.454Z,15.00
2018-04-14T14:49:26.925Z,15.30
2018-04-14T14:51:56.378Z,15.70
2018-04-14T14:54:23.838Z,16.20
2018-04-14T14:56:51.319Z,16.40
2018-04-14T14:59:18.772Z,16.40
2018-04-14T15:01:47.013Z,15.90
2018-04-14T15:04:14.468Z,16.00
2018-04-14T15:06:41.945Z,15.70
2018-04-14T15:09:09.410Z,15.60
2018-04-14T15:11:36.891Z,15.70
2018-04-14T15:14:04.344Z,15.70
2018-04-14T15:16:31.824Z,15.80
2018-04-14T15:18:59.297Z,15.80
2018-04-14T15:21:26.764Z,15.60
2018-04-14T15:23:54.226Z,15.30
2018-04-14T15:26:21.688Z,15.20
2018-04-14T15:28:49.160Z,15.20
2018-04-14T15:31:16.638Z,15.30
2018-04-14T15:33:44.106Z,15.40
2018-04-14T15:36:11.583Z,15.20
2018-04-14T15:38:39.046Z,15.00
2018-04-14T15:41:06.533Z,15.10
2018-04-14T15:43:33.994Z,15.30
2018-04-14T15:46:01.469Z,15.50
2018-04-14T15:48:28.929Z,15.30
2018-04-14T15:50:56.401Z,15.10
2018-04-14T15:53:23.861Z,14.90
2018-04-14T15:55:51.333Z,15.00
2018-04-14T15:58:18.799Z,15.30
2018-04-14T16:00:46.275Z,15.70
2018-04-14T16:03:13.755Z,15.80
2018-04-14T16:05:41.215Z,16.00
2018-04-14T16:08:08.677Z,16.10
2018-04-14T16:10:36.904Z,16.00
2018-04-14T16:13:04.372Z,16.10
2018-04-14T16:15:32.505Z,15.90
2018-04-14T16:17:59.978Z,15.80
2018-04-14T16:20:27.447Z,15.60
2018-04-14T16:22:54.918Z,15.50
2018-04-14T16:25:22.377Z,15.30
2018-04-14T16:27:49.867Z,15.00
2018-04-14T16:30:17.649Z,14.80
2018-04-14T16:32:45.126Z,14.70
2018-04-14T16:35:12.589Z,14.70
2018-04-14T16:37:40.070Z,14.70
2018-04-14T16:40:07.538Z,14.60
2018-04-14T16:42:35.018Z,14.50
2018-04-14T16:45:02.494Z,14.50
2018-04-14T16:47:29.958Z,14.50
2018-04-14T16:49:57.432Z,14.50
2018-04-14T16:52:24.913Z,14.40
2018-04-14T16:54:52.368Z,14.30
2018-04-14T16:57:19.850Z,14.20
2018-04-14T16:59:47.309Z,14.10
2018-04-14T17:02:14.781Z,13.90
2018-04-14T17:04:42.682Z,13.80
2018-04-14T17:07:10.158Z,13.60
2018-04-14T17:09:37.617Z,13.60
2018-04-14T17:12:05.089Z,13.60
2018-04-14T17:14:32.559Z,13.50
2018-04-14T17:17:00.032Z,13.50
2018-04-14T17:19:27.490Z,13.40
2018-04-14T17:21:54.958Z,13.30
2018-04-14T17:24:22.425Z,13.20
2018-04-14T17:26:49.893Z,13.10
2018-04-14T17:29:17.358Z,13.00
2018-04-14T17:31:44.825Z,12.90
2018-04-14T17:34:12.284Z,12.70
2018-04-14T17:36:39.754Z,12.60
2018-04-14T17:39:07.212Z,12.50
2018-04-14T17:41:34.697Z,12.40
2018-04-14T17:44:02.178Z,12.20
2018-04-14T17:46:29.663Z,12.10
2018-04-14T17:48:57.125Z,12.00
2018-04-14T17:51:24.601Z,11.90
2018-04-14T17:53:52.066Z,11.80
2018-04-14T17:56:19.540Z,11.80
2018-04-14T17:58:46.998Z,12.00
2018-04-14T18:01:14.478Z,11.80
2018-04-14T18:03:41.932Z,11.70
2018-04-14T18:06:09.395Z,11.70
2018-04-14T18:08:36.870Z,11.60
2018-04-14T18:11:04.338Z,11.60
2018-04-14T18:13:31.808Z,11.60
2018-04-14T18:15:59.273Z,11.60
2018-04-14T18:18:26.747Z,11.60
2018-04-14T18:20:54.208Z,11.70
2018-04-14T18:23:21.673Z,11.60
2018-04-14T18:25:49.147Z,11.50
2018-04-14T18:28:16.620Z,11.40
2018-04-14T18:30:44.077Z,11.50
2018-04-14T18:33:11.545Z,11.10
2018-04-14T18:35:39.010Z,10.90
2018-04-14T18:38:06.477Z,10.80
2018-04-14T18:40:33.937Z,10.70
2018-04-14T18:43:02.305Z,10.40
2018-04-14T18:45:29.757Z,10.10
2018-04-14T18:47:57.223Z,9.80
2018-04-14T18:50:24.677Z,9.60
2018-04-14T18:52:52.157Z,9.40
2018-04-14T18:55:19.622Z,9.10
2018-04-14T19:06:25.801Z,9.00
2018-04-14T19:08:53.261Z,9.20
2018-04-14T19:11:20.720Z,9.30
2018-04-14T19:13:48.193Z,9.50
2018-04-14T19:16:15.653Z,9.60
2018-04-14T19:18:43.125Z,9.60
2018-04-14T19:21:10.594Z,9.60
2018-04-14T19:26:30.766Z,9.50
2018-04-14T19:28:58.229Z,9.60
2018-04-14T19:31:25.693Z,9.60
2018-04-14T19:33:53.157Z,9.60
2018-04-14T19:36:20.626Z,9.50
2018-04-14T19:38:48.093Z,9.30
2018-04-14T19:41:15.555Z,9.20
2018-04-14T19:43:43.029Z,9.30
2018-04-14T19:46:10.488Z,9.40
2018-04-14T19:48:37.987Z,9.30
2018-04-14T19:51:05.425Z,9.10
2018-04-14T19:53:32.892Z,9.20
2018-04-14T19:56:00.349Z,9.10
2018-04-14T19:58:27.822Z,9.00
2018-04-14T20:00:55.275Z,8.90
2018-04-14T20:03:22.746Z,8.80
2018-04-14T20:05:50.971Z,8.60
2018-04-14T20:08:18.441Z,8.70
2018-04-14T20:10:45.925Z,8.60
2018-04-14T20:13:13.422Z,8.80
2018-04-14T20:15:40.883Z,8.80
2018-04-14T20:18:08.345Z,9.00
2018-04-14T20:20:35.801Z,9.20
2018-04-14T20:23:03.277Z,9.30
2018-04-14T20:25:31.453Z,9.30
2018-04-14T20:27:58.917Z,9.40
2018-04-14T20:30:26.386Z,9.50
2018-04-14T20:32:53.853Z,9.60
2018-04-14T20:35:21.314Z,9.50
2018-04-14T20:37:48.814Z,9.40
2018-04-14T20:40:16.270Z,9.60
2018-04-14T20:42:43.738Z,9.60
2018-04-14T20:45:11.193Z,9.70
2018-04-14T20:47:38.661Z,9.90
2018-04-14T20:50:06.126Z,9.60
2018-04-14T20:52:33.590Z,9.60
2018-04-14T20:55:01.069Z,9.50
2018-04-14T20:57:28.541Z,9.50
2018-04-14T20:59:56.000Z,9.60
2018-04-14T21:02:23.474Z,9.50
2018-04-14T21:04:50.933Z,9.50
2018-04-14T21:07:18.408Z,9.50
2018-04-14T21:09:45.859Z,9.50
2018-04-14T21:12:14.113Z,9.70
2018-04-14T21:14:41.574Z,9.40
2018-04-14T21:17:09.041Z,9.30
2018-04-14T21:19:36.501Z,9.30
2018-04-14T21:22:03.969Z,9.10
2018-04-14T21:24:31.442Z,8.90
2018-04-14T21:26:58.901Z,8.80
2018-04-14T21:29:26.365Z,8.60
2018-04-14T21:31:53.825Z,8.50
2018-04-14T21:34:21.288Z,8.30
2018-04-14T21:36:48.769Z,8.10
2018-04-14T21:39:16.232Z,7.80
2018-04-14T21:41:43.702Z,7.60
2018-04-14T21:44:11.176Z,7.50
2018-04-14T21:46:38.657Z,7.40
2018-04-14T21:49:06.127Z,7.20
2018-04-14T21:51:33.597Z,7.40
2018-04-14T21:54:01.074Z,7.10
2018-04-14T21:56:28.534Z,7.00
2018-04-14T21:58:56.011Z,6.90
2018-04-14T22:01:23.474Z,6.90
2018-04-14T22:03:50.936Z,6.90
2018-04-14T22:06:18.401Z,6.80
2018-04-14T22:08:45.870Z,6.70
2018-04-14T22:11:13.321Z,6.60
2018-04-14T22:13:44.761Z,6.60
2018-04-14T22:16:12.226Z,6.60
2018-04-14T22:18:39.698Z,6.60
2018-04-14T22:21:07.158Z,6.60
2018-04-14T22:23:34.632Z,6.50
2018-04-14T22:26:02.096Z,6.50
2018-04-14T22:28:29.552Z,6.50
2018-04-14T22:30:57.017Z,6.40
2018-04-14T22:33:24.484Z,6.30
2018-04-14T22:35:51.950Z,6.30
2018-04-14T22:38:19.426Z,6.30
2018-04-14T22:40:46.877Z,6.30
2018-04-14T22:43:14.350Z,6.30
2018-04-14T22:45:41.808Z,6.20
2018-04-14T22:48:09.282Z,6.10
2018-04-14T22:50:36.739Z,6.00
2018-04-14T22:53:04.201Z,5.90
2018-04-14T22:55:32.257Z,6.00
2018-04-14T22:57:59.729Z,6.30
2018-04-14T23:00:27.188Z,5.80
2018-04-14T23:02:54.653Z,5.80
2018-04-14T23:05:22.106Z,5.80
2018-04-14T23:07:51.487Z,5.80
2018-04-14T23:10:18.945Z,5.80
2018-04-14T23:12:46.402Z,5.70
2018-04-14T23:15:14.639Z,5.90
2018-04-14T23:17:42.097Z,6.00
2018-04-14T23:20:11.494Z,6.00
2018-04-14T23:22:40.899Z,6.00
2018-04-14T23:25:13.084Z,6.00
2018-04-14T23:27:40.550Z,6.10
2018-04-14T23:30:08.026Z,6.10
2018-04-14T23:32:35.482Z,6.10
2018-04-14T23:35:05.617Z,6.10
2018-04-14T23:37:33.076Z,5.90
2018-04-14T23:40:01.310Z,6.20
2018-04-14T23:42:28.765Z,6.10
2018-04-14T23:44:57.255Z,6.10
2018-04-14T23:47:24.749Z,6.10
2018-04-14T23:49:52.219Z,6.10
2018-04-14T23:52:19.681Z,6.20
2018-04-14T23:54:49.069Z,6.20
2018-04-14T23:57:16.531Z,6.30
2018-04-14T23:59:44.001Z,6.40
